createdAt,value
2022-07-25T00:01:25.430Z,100140.00
2022-07-25T00:04:16.118Z,100136.59
2022-07-25T00:07:02.532Z,100140.19
2022-07-25T00:09:48.487Z,100146.34
2022-07-25T00:12:34.271Z,100149.88
2022-07-25T00:15:19.659Z,100157.69
2022-07-25T00:18:05.022Z,100150.75
2022-07-25T00:20:50.451Z,100161.16
2022-07-25T00:23:35.796Z,100155.13
2022-07-25T00:26:21.213Z,100162.06
2022-07-25T00:29:06.642Z,100163.81
2022-07-25T00:31:52.213Z,100162.06
2022-07-25T00:34:37.954Z,100169.84
2022-07-25T00:37:23.360Z,100168.81
2022-07-25T00:40:09.701Z,100174.03
2022-07-25T00:42:55.352Z,100180.88
2022-07-25T00:45:40.760Z,100179.09
2022-07-25T00:48:27.149Z,100181.69
2022-07-25T00:51:12.558Z,100180.72
2022-07-25T00:53:58.272Z,100181.53
2022-07-25T00:56:44.134Z,100173.59
2022-07-25T00:59:29.722Z,100180.53
2022-07-25T01:02:15.394Z,100186.63
2022-07-25T01:05:00.800Z,100181.38
2022-07-25T01:07:47.394Z,100178.66
2022-07-25T01:10:33.499Z,100171.75
2022-07-25T01:13:18.771Z,100177.19
2022-07-25T01:16:06.564Z,100175.63
2022-07-25T01:18:52.181Z,100178.38
2022-07-25T01:21:39.303Z,100183.75
2022-07-25T01:24:24.924Z,100186.41
2022-07-25T01:27:11.080Z,100186.41
2022-07-25T01:30:02.658Z,100184.78
2022-07-25T01:32:48.455Z,100187.56
2022-07-25T01:35:34.027Z,100191.09
2022-07-25T01:38:19.473Z,100192.84
2022-07-25T01:41:05.012Z,100196.22
2022-07-25T01:43:50.741Z,100203.97
2022-07-25T01:46:36.202Z,100207.44
2022-07-25T01:49:22.088Z,100203.91
2022-07-25T01:52:07.423Z,100206.47
2022-07-25T01:54:52.766Z,100214.25
2022-07-25T01:57:39.997Z,100216.81
2022-07-25T02:00:26.054Z,100213.28
2022-07-25T02:03:30.077Z,100214.09
2022-07-25T02:06:15.719Z,100207.97
2022-07-25T02:09:01.642Z,100211.44
2022-07-25T02:11:47.061Z,100213.13
2022-07-25T02:14:32.416Z,100212.19
2022-07-25T02:17:18.302Z,100216.56
2022-07-25T02:20:04.078Z,100214.75
2022-07-25T02:22:49.466Z,100215.59
2022-07-25T02:25:35.600Z,100225.16
2022-07-25T02:28:21.241Z,100226.88
2022-07-25T02:31:07.240Z,100222.56
2022-07-25T02:33:52.987Z,100231.38
2022-07-25T02:36:38.521Z,100237.56
2022-07-25T02:39:25.461Z,100237.69
2022-07-25T02:42:11.042Z,100237.72
2022-07-25T02:44:56.440Z,100245.59
2022-07-25T02:47:41.713Z,100247.41
2022-07-25T02:50:27.295Z,100247.41
2022-07-25T02:53:13.002Z,100261.38
2022-07-25T02:55:58.454Z,100249.09
2022-07-25T02:58:44.990Z,100256.97
2022-07-25T03:01:30.537Z,100252.66
2022-07-25T03:04:17.126Z,100254.34
2022-07-25T03:07:02.858Z,100258.69
2022-07-25T03:09:48.290Z,100250.06
2022-07-25T03:12:33.898Z,100250.03
2022-07-25T03:15:19.610Z,100251.75
2022-07-25T03:18:04.989Z,100250.91
2022-07-25T03:20:50.349Z,100243.88
2022-07-25T03:23:35.664Z,100257.91
2022-07-25T03:26:21.249Z,100261.38
2022-07-25T03:29:06.886Z,100256.13
2022-07-25T03:31:52.370Z,100263.94
2022-07-25T03:34:38.519Z,100261.28
2022-07-25T03:37:23.992Z,100265.66
2022-07-25T03:40:10.048Z,100273.47
2022-07-25T03:42:55.519Z,100271.69
2022-07-25T03:45:41.254Z,100272.59
2022-07-25T03:48:26.899Z,100273.44
2022-07-25T03:51:12.611Z,100272.50
2022-07-25T03:54:04.517Z,100275.13
2022-07-25T03:56:51.555Z,100271.66
2022-07-25T03:59:37.706Z,100281.28
2022-07-25T04:02:23.151Z,100282.16
2022-07-25T04:05:09.956Z,100282.16
2022-07-25T04:07:55.404Z,100283.03
2022-07-25T04:10:40.966Z,100294.38
2022-07-25T04:13:26.874Z,100297.91
2022-07-25T04:16:22.292Z,100303.16
2022-07-25T04:19:08.625Z,100307.47
2022-07-25T04:21:53.864Z,100309.16
2022-07-25T04:24:39.265Z,100311.78
2022-07-25T04:27:24.979Z,100319.59
2022-07-25T04:30:11.563Z,100322.22
2022-07-25T04:32:57.256Z,100328.34
2022-07-25T04:35:43.022Z,100323.06
2022-07-25T04:38:28.434Z,100327.41
2022-07-25T04:41:13.778Z,100328.25
2022-07-25T04:43:59.006Z,100318.63
2022-07-25T04:46:44.294Z,100315.19
2022-07-25T04:49:29.598Z,100328.34
2022-07-25T04:52:15.208Z,100327.50
2022-07-25T04:55:00.698Z,100322.31
2022-07-25T04:57:47.210Z,100324.09
2022-07-25T05:00:33.410Z,100341.59
2022-07-25T05:03:19.211Z,100342.50
2022-07-25T05:06:04.589Z,100344.19
2022-07-25T05:08:50.010Z,100348.50
2022-07-25T05:11:35.486Z,100351.00
2022-07-25T05:14:21.176Z,100349.19
2022-07-25T05:17:06.883Z,100356.16
2022-07-25T05:19:52.577Z,100355.25
2022-07-25T05:22:37.900Z,100359.56
2022-07-25T05:25:23.231Z,100365.47
2022-07-25T05:28:08.739Z,100373.13
2022-07-25T05:30:55.005Z,100363.38
2022-07-25T05:33:40.340Z,100362.38
2022-07-25T05:36:25.890Z,100360.63
2022-07-25T05:39:11.619Z,100366.63
2022-07-25T05:41:56.966Z,100363.13
2022-07-25T05:44:42.192Z,100362.19
2022-07-25T05:47:27.638Z,100361.25
2022-07-25T05:50:12.969Z,100371.75
2022-07-25T05:52:58.236Z,100380.44
2022-07-25T05:55:43.823Z,100378.66
2022-07-25T05:58:30.188Z,100397.00
2022-07-25T06:01:16.471Z,100389.19
2022-07-25T06:04:01.798Z,100404.16
2022-07-25T06:06:53.029Z,100403.41
2022-07-25T06:09:39.087Z,100413.13
2022-07-25T06:12:24.604Z,100406.16
2022-07-25T06:15:17.415Z,100412.16
2022-07-25T06:18:08.504Z,100408.59
2022-07-25T06:20:54.531Z,100401.63
2022-07-25T06:23:40.005Z,100412.97
2022-07-25T06:26:25.385Z,100425.88
2022-07-25T06:29:10.797Z,100420.34
2022-07-25T06:31:56.225Z,100422.00
2022-07-25T06:34:41.940Z,100440.41
2022-07-25T06:37:27.398Z,100425.44
2022-07-25T06:40:13.288Z,100450.06
2022-07-25T06:42:58.931Z,100442.38
2022-07-25T06:45:47.597Z,100449.56
2022-07-25T06:48:33.134Z,100454.88
2022-07-25T06:51:18.799Z,100462.75
2022-07-25T06:54:04.853Z,100467.38
2022-07-25T06:56:50.721Z,100483.97
2022-07-25T06:59:36.319Z,100479.44
2022-07-25T07:02:21.982Z,100476.84
2022-07-25T07:05:07.801Z,100478.59
2022-07-25T07:07:53.983Z,100472.38
2022-07-25T07:10:40.382Z,100483.59
2022-07-25T07:13:25.859Z,100471.94
2022-07-25T07:16:11.707Z,100485.59
2022-07-25T07:18:58.232Z,100491.00
2022-07-25T07:21:44.146Z,100490.88
2022-07-25T07:24:29.839Z,100497.88
2022-07-25T07:27:15.400Z,100502.72
2022-07-25T07:30:04.970Z,100499.63
2022-07-25T07:32:50.421Z,100507.41
2022-07-25T07:35:36.027Z,100510.03
2022-07-25T07:38:21.800Z,100517.31
2022-07-25T07:41:07.885Z,100520.66
2022-07-25T07:43:53.527Z,100513.41
2022-07-25T07:46:39.061Z,100520.09
2022-07-25T07:49:24.944Z,100525.41
2022-07-25T07:52:10.301Z,100540.25
2022-07-25T07:55:14.194Z,100534.94
2022-07-25T07:58:00.247Z,100547.16
2022-07-25T08:00:47.600Z,100546.22
2022-07-25T08:03:33.098Z,100554.22
2022-07-25T08:06:18.840Z,100549.03
2022-07-25T08:09:04.800Z,100557.00
2022-07-25T08:11:50.255Z,100567.50
2022-07-25T08:14:35.736Z,100575.88
2022-07-25T08:17:25.042Z,100589.28
2022-07-25T08:20:35.684Z,100593.16
2022-07-25T08:23:20.308Z,100595.75
2022-07-25T08:26:06.614Z,100595.34
2022-07-25T08:29:17.100Z,100606.06
2022-07-25T08:31:58.686Z,100597.81
2022-07-25T08:34:44.210Z,100603.63
2022-07-25T08:37:30.130Z,100608.84
2022-07-25T08:40:17.735Z,100617.72
2022-07-25T08:43:04.736Z,100628.66
2022-07-25T08:45:52.198Z,100623.50
2022-07-25T08:48:39.132Z,100638.66
2022-07-25T08:51:24.874Z,100638.78
2022-07-25T08:54:10.905Z,100642.63
2022-07-25T08:56:56.864Z,100645.09
2022-07-25T08:59:43.436Z,100648.47
2022-07-25T09:02:29.699Z,100663.34
2022-07-25T09:05:15.672Z,100669.72
2022-07-25T09:08:16.576Z,100667.13
2022-07-25T09:11:02.214Z,100671.72
2022-07-25T09:13:58.190Z,100675.25
2022-07-25T09:16:45.365Z,100692.81
2022-07-25T09:19:31.707Z,100676.38
2022-07-25T09:22:17.016Z,100693.00
2022-07-25T09:25:02.359Z,100707.75
2022-07-25T09:27:47.876Z,100705.06
2022-07-25T09:30:33.603Z,100709.28
2022-07-25T09:33:19.169Z,100709.09
2022-07-25T09:36:12.161Z,100719.38
2022-07-25T09:39:01.133Z,100735.06
2022-07-25T09:41:46.977Z,100734.13
2022-07-25T09:44:32.579Z,100741.25
2022-07-25T09:47:18.190Z,100749.72
2022-07-25T09:50:05.856Z,100741.53
2022-07-25T09:52:54.542Z,100754.56
2022-07-25T09:55:40.814Z,100750.03
2022-07-25T09:58:28.022Z,100758.31
2022-07-25T10:01:21.771Z,100757.34
2022-07-25T10:04:37.807Z,100756.75
2022-07-25T10:07:29.453Z,100765.28
2022-07-25T10:10:26.238Z,100778.19
2022-07-25T10:13:17.895Z,100779.03
2022-07-25T10:16:14.790Z,100779.22
2022-07-25T10:19:00.210Z,100791.78
2022-07-25T10:21:55.737Z,100802.63
2022-07-25T10:24:46.195Z,100804.56
2022-07-25T10:27:42.596Z,100810.69
2022-07-25T10:30:40.920Z,100827.19
2022-07-25T10:33:26.378Z,100815.88
2022-07-25T10:36:12.008Z,100835.66
2022-07-25T10:38:59.601Z,100823.00
2022-07-25T10:41:53.360Z,100826.16
2022-07-25T10:44:48.423Z,100827.81
2022-07-25T10:47:38.278Z,100821.88
2022-07-25T10:50:53.344Z,100828.75
2022-07-25T10:53:43.970Z,100845.47
2022-07-25T10:56:30.083Z,100849.22
2022-07-25T10:59:35.675Z,100861.28
2022-07-25T11:02:24.219Z,100865.34
2022-07-25T11:05:09.983Z,100869.84
2022-07-25T11:08:20.500Z,100876.25
2022-07-25T11:11:02.522Z,100887.91
2022-07-25T11:13:50.259Z,100882.59
2022-07-25T11:16:35.864Z,100883.19
2022-07-25T11:19:28.647Z,100895.66
2022-07-25T11:22:16.379Z,100890.38
2022-07-25T11:25:09.704Z,100916.34
2022-07-25T11:28:00.230Z,100929.75
2022-07-25T11:30:45.975Z,100930.09
2022-07-25T11:33:31.601Z,100942.50
2022-07-25T11:36:18.013Z,100944.34
2022-07-25T11:39:04.179Z,100951.41
2022-07-25T11:41:59.889Z,100959.94
2022-07-25T11:44:50.950Z,100946.28
2022-07-25T11:47:36.286Z,100947.56
2022-07-25T11:50:29.980Z,100938.84
2022-07-25T11:53:17.325Z,100945.59
2022-07-25T11:59:26.664Z,100961.59
2022-07-25T12:02:31.380Z,100957.16
2022-07-25T12:05:32.157Z,100972.31
2022-07-25T12:08:20.377Z,100967.22
2022-07-25T12:11:20.890Z,100974.69
2022-07-25T12:14:07.801Z,100974.59
2022-07-25T12:16:53.450Z,100981.94
2022-07-25T12:19:41.236Z,100975.69
2022-07-25T12:22:26.683Z,100999.81
2022-07-25T12:25:12.677Z,100993.25
2022-07-25T12:27:59.453Z,101004.66
2022-07-25T12:30:46.647Z,101022.66
2022-07-25T12:33:35.644Z,101026.34
2022-07-25T12:36:21.284Z,101019.19
2022-07-25T12:39:07.099Z,101016.09
2022-07-25T12:41:52.698Z,101023.91
2022-07-25T12:44:38.101Z,101015.50
2022-07-25T12:47:24.604Z,101024.97
2022-07-25T12:50:10.392Z,101029.56
2022-07-25T12:52:56.027Z,101036.91
2022-07-25T12:55:41.595Z,101030.78
2022-07-25T12:58:27.047Z,101037.66
2022-07-25T13:01:13.805Z,101027.34
2022-07-25T13:03:59.748Z,101029.97
2022-07-25T13:06:45.481Z,101037.91
2022-07-25T13:09:31.852Z,101051.09
2022-07-25T13:12:17.334Z,101037.03
2022-07-25T13:15:03.224Z,101037.13
2022-07-25T13:17:48.680Z,101039.50
2022-07-25T13:20:36.160Z,101046.19
2022-07-25T13:23:21.995Z,101055.00
2022-07-25T13:26:10.890Z,101062.34
2022-07-25T13:28:59.917Z,101064.88
2022-07-25T13:31:45.904Z,101062.84
2022-07-25T13:34:31.243Z,101076.59
2022-07-25T13:37:19.136Z,101074.66
2022-07-25T13:40:06.347Z,101089.34
2022-07-25T13:42:52.878Z,101080.16
2022-07-25T13:45:39.716Z,101073.69
2022-07-25T13:48:29.913Z,101088.28
2022-07-25T13:51:16.849Z,101065.34
2022-07-25T13:54:03.274Z,101093.09
2022-07-25T13:56:48.949Z,101081.66
2022-07-25T13:59:34.481Z,101092.81
2022-07-25T14:02:20.202Z,101091.13
2022-07-25T14:05:06.059Z,101104.19
2022-07-25T14:07:51.470Z,101105.88
2022-07-25T14:10:36.823Z,101120.69
2022-07-25T14:13:22.204Z,101109.91
2022-07-25T14:16:07.869Z,101126.94
2022-07-25T14:18:55.084Z,101115.53
2022-07-25T14:21:40.688Z,101111.03
2022-07-25T14:24:26.173Z,101123.19
2022-07-25T14:27:12.031Z,101129.78
2022-07-25T14:29:57.579Z,101137.94
2022-07-25T14:32:43.305Z,101145.59
2022-07-25T14:35:32.796Z,101145.63
2022-07-25T14:38:18.500Z,101159.56
2022-07-25T14:41:07.726Z,101151.09
2022-07-25T14:43:56.464Z,101152.31
2022-07-25T14:46:44.094Z,101151.41
2022-07-25T14:49:29.853Z,101161.59
2022-07-25T14:52:16.562Z,101170.47
2022-07-25T14:55:02.227Z,101165.75
2022-07-25T14:57:48.717Z,101166.00
2022-07-25T15:00:34.576Z,101169.94
2022-07-25T15:03:21.175Z,101170.16
2022-07-25T15:06:09.886Z,101181.06
2022-07-25T15:08:55.597Z,101173.38
2022-07-25T15:11:41.355Z,101173.94
2022-07-25T15:14:26.897Z,101178.25
2022-07-25T15:17:13.665Z,101181.53
2022-07-25T15:19:59.903Z,101184.00
2022-07-25T15:22:45.443Z,101189.94
2022-07-25T15:28:38.430Z,101196.78
2022-07-25T15:31:26.500Z,101199.41
2022-07-25T15:34:15.354Z,101210.34
2022-07-25T15:37:01.572Z,101214.84
2022-07-25T15:39:47.392Z,101222.19
2022-07-25T15:42:33.710Z,101218.19
2022-07-25T15:45:36.519Z,101236.53
2022-07-25T15:48:23.720Z,101222.06
2022-07-25T15:51:09.438Z,101231.00
2022-07-25T15:53:54.969Z,101217.75
2022-07-25T15:56:40.599Z,101239.53
2022-07-25T15:59:26.258Z,101242.78
2022-07-25T16:02:13.239Z,101253.47
2022-07-25T16:04:58.574Z,101253.97
2022-07-25T16:07:44.174Z,101253.53
2022-07-25T16:10:31.732Z,101255.00
2022-07-25T16:13:17.940Z,101257.28
2022-07-25T16:16:03.664Z,101270.66
2022-07-25T16:18:49.116Z,101264.47
2022-07-25T16:21:34.882Z,101268.81
2022-07-25T16:24:20.494Z,101289.59
2022-07-25T16:27:08.305Z,101287.22
2022-07-25T16:29:54.017Z,101286.84
2022-07-25T16:32:39.663Z,101280.56
2022-07-25T16:35:25.321Z,101290.75
2022-07-25T16:38:11.334Z,101288.13
2022-07-25T16:40:56.738Z,101292.56
2022-07-25T16:43:42.194Z,101302.34
2022-07-25T16:46:28.692Z,101318.88
2022-07-25T16:49:15.637Z,101316.66
2022-07-25T16:52:01.191Z,101315.09
2022-07-25T16:54:46.548Z,101313.13
2022-07-25T16:57:32.334Z,101322.47
2022-07-25T17:00:17.953Z,101318.50
2022-07-25T17:03:03.566Z,101318.00
2022-07-25T17:05:51.796Z,101317.88
2022-07-25T17:08:37.943Z,101327.66
2022-07-25T17:11:23.300Z,101323.13
2022-07-25T17:14:08.737Z,101333.66
2022-07-25T17:16:54.057Z,101342.59
2022-07-25T17:19:40.170Z,101327.81
2022-07-25T17:22:26.000Z,101330.25
2022-07-25T17:25:11.491Z,101348.94
2022-07-25T17:27:57.061Z,101356.19
2022-07-25T17:30:42.383Z,101360.16
2022-07-25T17:33:27.972Z,101357.06
2022-07-25T17:36:14.225Z,101359.75
2022-07-25T17:39:00.187Z,101374.63
2022-07-25T17:41:45.507Z,101384.50
2022-07-25T17:44:30.900Z,101385.41
2022-07-25T17:47:16.185Z,101402.09
2022-07-25T17:50:02.412Z,101410.09
2022-07-25T17:52:47.728Z,101419.81
2022-07-25T17:55:36.856Z,101423.44
2022-07-25T17:58:24.338Z,101416.47
2022-07-25T18:01:10.663Z,101418.22
2022-07-25T18:03:57.156Z,101416.34
2022-07-25T18:06:42.887Z,101424.81
2022-07-25T18:09:28.301Z,101435.22
2022-07-25T18:12:13.969Z,101443.91
2022-07-25T18:14:59.302Z,101434.56
2022-07-25T18:17:46.198Z,101447.84
2022-07-25T18:20:31.712Z,101443.81
2022-07-25T18:23:17.324Z,101446.63
2022-07-25T18:26:03.681Z,101458.94
2022-07-25T18:28:49.285Z,101461.69
2022-07-25T18:31:35.199Z,101457.31
2022-07-25T18:34:20.821Z,101456.41
2022-07-25T18:37:06.344Z,101466.91
2022-07-25T18:39:52.036Z,101466.09
2022-07-25T18:42:38.125Z,101466.03
2022-07-25T18:45:24.131Z,101468.63
2022-07-25T18:48:10.245Z,101476.53
2022-07-25T18:50:55.545Z,101468.50
2022-07-25T18:53:44.727Z,101460.56
2022-07-25T18:56:32.854Z,101465.84
2022-07-25T18:59:18.745Z,101474.72
2022-07-25T19:02:05.427Z,101486.97
2022-07-25T19:04:51.250Z,101479.97
2022-07-25T19:07:37.928Z,101487.81
2022-07-25T19:10:23.638Z,101495.72
2022-07-25T19:13:15.197Z,101500.16
2022-07-25T19:16:08.140Z,101499.41
2022-07-25T19:18:53.927Z,101505.66
2022-07-25T19:21:39.586Z,101512.81
2022-07-25T19:24:25.169Z,101509.47
2022-07-25T19:27:11.136Z,101521.81
2022-07-25T19:29:56.780Z,101523.66
2022-07-25T19:32:42.189Z,101534.16
2022-07-25T19:35:27.684Z,101529.81
2022-07-25T19:38:13.033Z,101534.19
2022-07-25T19:40:59.061Z,101539.44
2022-07-25T19:43:44.458Z,101543.88
2022-07-25T19:46:34.151Z,101548.25
2022-07-25T19:49:20.303Z,101550.88
2022-07-25T19:52:06.845Z,101557.94
2022-07-25T19:54:52.972Z,101553.56
2022-07-25T19:57:38.700Z,101564.97
2022-07-25T20:00:24.141Z,101573.78
2022-07-25T20:03:09.887Z,101581.69
2022-07-25T20:05:57.873Z,101579.06
2022-07-25T20:08:43.542Z,101573.00
2022-07-25T20:11:29.180Z,101580.91
2022-07-25T20:14:14.941Z,101579.19
2022-07-25T20:17:00.821Z,101589.72
2022-07-25T20:19:46.693Z,101590.56
2022-07-25T20:22:37.446Z,101593.22
2022-07-25T20:25:23.188Z,101594.09
2022-07-25T20:28:08.912Z,101601.09
2022-07-25T20:30:56.111Z,101610.75
2022-07-25T20:33:41.789Z,101609.88
2022-07-25T20:36:27.249Z,101604.63
2022-07-25T20:39:13.356Z,101616.03
2022-07-25T20:42:00.051Z,101619.53
2022-07-25T20:44:45.685Z,101623.03
2022-07-25T20:47:31.255Z,101622.22
2022-07-25T20:50:17.036Z,101628.34
2022-07-25T20:53:03.866Z,101628.34
2022-07-25T20:55:49.360Z,101627.47
2022-07-25T20:58:35.143Z,101616.13
2022-07-25T21:01:20.947Z,101630.97
2022-07-25T21:04:07.997Z,101630.13
2022-07-25T21:06:56.534Z,101638.88
2022-07-25T21:09:42.800Z,101633.63
2022-07-25T21:12:32.420Z,101639.75
2022-07-25T21:15:18.538Z,101647.66
2022-07-25T21:18:04.761Z,101643.28
2022-07-25T21:20:50.472Z,101649.41
2022-07-25T21:23:36.298Z,101653.78
2022-07-25T21:26:21.756Z,101642.41
2022-07-25T21:29:07.629Z,101654.69
2022-07-25T21:31:54.360Z,101650.31
2022-07-25T21:34:41.816Z,101657.31
2022-07-25T21:37:27.304Z,101654.69
2022-07-25T21:40:13.151Z,101654.69
2022-07-25T21:42:58.467Z,101667.81
2022-07-25T21:45:44.042Z,101661.72
2022-07-25T21:48:48.199Z,101670.44
2022-07-25T21:51:40.662Z,101666.94
2022-07-25T21:54:26.629Z,101657.34
2022-07-25T21:57:14.412Z,101678.34
2022-07-25T22:00:00.076Z,101688.81
2022-07-25T22:02:46.899Z,101686.19
2022-07-25T22:05:32.589Z,101690.59
2022-07-25T22:08:19.715Z,101694.94
2022-07-25T22:11:38.107Z,101692.34
2022-07-25T22:14:11.220Z,101705.41
2022-07-25T22:16:56.972Z,101702.81
2022-07-25T22:19:42.414Z,101698.44
2022-07-25T22:22:28.135Z,101708.00
2022-07-25T22:25:13.990Z,101714.97
2022-07-25T22:27:59.707Z,101715.84
2022-07-25T22:30:45.472Z,101715.84
2022-07-25T22:33:34.484Z,101711.47
2022-07-25T22:36:19.860Z,101724.56
2022-07-25T22:39:06.138Z,101721.94
2022-07-25T22:41:52.130Z,101725.47
2022-07-25T22:44:37.532Z,101720.22
2022-07-25T22:47:22.913Z,101729.81
2022-07-25T22:50:09.682Z,101721.06
2022-07-25T22:52:55.000Z,101721.94
2022-07-25T22:55:40.296Z,101724.56
2022-07-25T22:58:27.167Z,101722.78
2022-07-25T23:01:13.025Z,101728.03
2022-07-25T23:03:58.839Z,101722.78
2022-07-25T23:06:44.669Z,101735.00
2022-07-25T23:09:36.156Z,101735.88
2022-07-25T23:12:22.464Z,101744.59
2022-07-25T23:15:08.217Z,101743.72
2022-07-25T23:17:53.635Z,101739.34
2022-07-25T23:20:38.858Z,101745.47
2022-07-25T23:23:24.461Z,101745.47
2022-07-25T23:26:10.394Z,101752.47
2022-07-25T23:28:56.431Z,101759.44
2022-07-25T23:31:42.098Z,101753.31
2022-07-25T23:34:28.074Z,101751.56
2022-07-25T23:37:14.128Z,101754.16
2022-07-25T23:39:59.822Z,101751.53
2022-07-25T23:42:45.432Z,101759.38
2022-07-25T23:45:32.727Z,101756.75
2022-07-25T23:48:18.180Z,101761.97
2022-07-25T23:51:03.586Z,101761.94
2022-07-25T23:53:52.464Z,101771.53
2022-07-25T23:56:37.980Z,101775.91
2022-07-25T23:59:23.226Z,101778.47
